Time;durP1;ratioP1;P1;durP2;ratioP2;P2;SDS_P1;SDS_P2;PMS_P1;PMS_P2;Temp;Humidity;BMP_temperature;BMP_pressure;BME280_temperature;BME280_humidity;BME280_pressure;Samples;Min_cycle;Max_cycle;Signal;HPM_P1;HPM_P2
2021/12/20 00:02:28;;;;;;;;;;;;;;;5.16;73.87;99363.16;4979807;28;19977;-90
2021/12/20 00:05:01;;;;;;;;;;;;;;;5.11;73.80;99372.34;4979089;28;20359;-90
2021/12/20 00:07:36;;;;;;;;;;;;;;;5.08;73.72;99364.75;4963092;28;19930;-91
2021/12/20 00:10:12;;;;;;;;;;;;;;;5.08;73.63;99352.09;4978942;28;19933;-91
2021/12/20 00:12:45;;;;;;;;;;;;;;;5.08;73.33;99359.69;4962169;28;19930;-92
2021/12/20 00:15:19;;;;;;;;;;;;;;;5.07;73.12;99373.13;4977762;28;20004;-92
2021/12/20 00:17:56;;;;;;;;;;;;;;;5.04;72.91;99369.72;4977922;28;19977;-93
2021/12/20 00:20:28;;;;;;;;;;;;;;;5.04;72.73;99367.19;4978969;28;20395;-92
2021/12/20 00:23:04;;;;;;;;;;;;;;;5.00;73.00;99366.28;4962845;28;20018;-91
2021/12/20 00:25:42;;;;;;;;;;;;;;;5.09;73.08;99361.38;4981614;28;19926;-90
2021/12/20 00:28:18;;;;;;;;;;;;;;;5.11;72.42;99379.94;4979493;28;19933;-90
2021/12/20 00:30:51;;;;;;;;;;;;;;;5.01;72.15;99380.66;4979377;28;19927;-91
2021/12/20 00:33:28;;;;;;;;;;;;;;;4.99;71.99;99383.97;4981295;28;19977;-90
2021/12/20 00:36:00;;;;;;;;;;;;;;;4.94;72.14;99391.47;4981458;28;19962;-91
2021/12/20 00:41:20;;;;;;;;;;;;;;;4.82;71.83;99386.22;4978699;28;19926;-91
2021/12/20 00:43:49;;;;;;;;;;;;;;;4.73;71.66;99383.50;4964098;28;19926;-91
2021/12/20 00:46:22;;;;;;;;;;;;;;;4.70;71.90;99380.94;4981840;28;19941;-90
2021/12/20 00:48:55;;;;;;;;;;;;;;;4.69;71.51;99385.16;4985324;28;19926;-86
2021/12/20 00:51:33;;;;;;;;;;;;;;;4.61;71.01;99395.91;4962391;28;19926;-93
2021/12/20 00:54:19;;;;;;;;;;;;;;;4.57;71.00;99414.38;4965229;28;19965;-92
2021/12/20 00:56:54;;;;;;;;;;;;;;;4.53;70.64;99413.50;4959583;29;20021;-91
2021/12/20 00:59:26;;;;;;;;;;;;;;;4.50;70.20;99417.63;4946401;28;20028;-91
2021/12/20 01:01:56;;;;;;;;;;;;;;;4.46;70.02;99420.94;4945493;29;19926;-91
2021/12/20 01:04:33;;;;;;;;;;;;;;;4.37;69.92;99428.31;4959193;29;19933;-91
2021/12/20 01:07:07;;;;;;;;;;;;;;;4.38;69.29;99417.38;4944156;29;19937;-91
2021/12/20 01:09:42;;;;;;;;;;;;;;;4.35;69.32;99417.31;4945187;28;20380;-91
2021/12/20 01:12:20;;;;;;;;;;;;;;;4.36;68.50;99424.09;4963988;28;19936;-91
2021/12/20 01:14:59;;;;;;;;;;;;;;;4.28;68.19;99415.50;4959800;29;19933;-91
2021/12/20 01:17:36;;;;;;;;;;;;;;;4.21;68.05;99419.59;4959725;28;19926;-91
2021/12/20 01:20:08;;;;;;;;;;;;;;;4.17;68.50;99437.16;4958319;29;20018;-92
2021/12/20 01:23:00;;;;;;;;;;;;;;;4.18;68.06;99438.84;4959675;29;19926;-92
2021/12/20 01:25:35;;;;;;;;;;;;;;;4.18;67.42;99431.28;4958920;29;19927;-92
2021/12/20 01:28:14;;;;;;;;;;;;;;;4.12;67.32;99446.31;4972205;28;19926;-91
2021/12/20 01:30:49;;;;;;;;;;;;;;;4.11;67.37;99442.06;4966299;28;20391;-92
2021/12/20 01:33:21;;;;;;;;;;;;;;;4.08;67.31;99451.31;4963978;28;19926;-91
2021/12/20 01:35:55;;;;;;;;;;;;;;;4.05;67.20;99457.97;4963253;28;19942;-92
2021/12/20 01:38:29;;;;;;;;;;;;;;;4.06;66.93;99455.47;4981122;28;20362;-92
2021/12/20 01:40:58;;;;;;;;;;;;;;;4.04;66.83;99452.06;4959591;28;19959;-92
2021/12/20 01:43:31;;;;;;;;;;;;;;;3.96;67.26;99456.09;4966047;28;19926;-91
2021/12/20 01:46:05;;;;;;;;;;;;;;;3.92;66.86;99451.81;4963725;28;19934;-91
2021/12/20 01:48:37;;;;;;;;;;;;;;;3.92;66.08;99456.84;4966551;28;19974;-92
2021/12/20 01:51:31;;;;;;;;;;;;;;;3.91;66.30;99455.13;4982117;28;19926;-92
2021/12/20 01:54:14;;;;;;;;;;;;;;;3.92;65.98;99453.47;4962145;29;19934;-91
2021/12/20 01:56:52;;;;;;;;;;;;;;;3.90;66.12;99452.59;4960856;28;19927;-91
2021/12/20 01:59:28;;;;;;;;;;;;;;;3.96;65.69;99456.09;4961472;28;20292;-91
2021/12/20 02:05:15;;;;;;;;;;;;;;;3.94;65.61;99464.44;4967782;23;19933;-88
2021/12/20 02:07:57;;;;;;;;;;;;;;;3.94;65.42;99460.25;4946792;28;19926;-90
2021/12/20 02:10:31;;;;;;;;;;;;;;;3.95;65.34;99461.13;4960874;28;19981;-90
2021/12/20 02:13:03;;;;;;;;;;;;;;;3.89;65.35;99474.44;4978331;28;19926;-90
2021/12/20 02:15:37;;;;;;;;;;;;;;;3.84;65.28;99465.91;4975586;28;19933;-90
2021/12/20 02:18:10;;;;;;;;;;;;;;;3.82;66.23;99470.06;4976880;28;19930;-90
2021/12/20 02:20:45;;;;;;;;;;;;;;;3.81;66.14;99478.50;4943338;28;19926;-90
2021/12/20 02:23:17;;;;;;;;;;;;;;;3.77;66.07;99476.69;4976926;28;19926;-89
2021/12/20 02:25:50;;;;;;;;;;;;;;;3.77;65.97;99476.69;4977347;28;20002;-90
2021/12/20 02:28:24;;;;;;;;;;;;;;;3.75;66.00;99473.28;4976986;28;20008;-89
2021/12/20 02:39:12;;;;;;;;;;;;;;;3.72;65.96;99477.44;4959615;28;19926;-90
2021/12/20 02:41:46;;;;;;;;;;;;;;;3.69;65.32;99475.69;4959290;28;20005;-90
2021/12/20 02:44:24;;;;;;;;;;;;;;;3.66;65.71;99482.31;4976302;28;20025;-90
2021/12/20 02:49:42;;;;;;;;;;;;;;;3.56;65.61;99486.28;4976333;28;19926;-90
2021/12/20 02:52:17;;;;;;;;;;;;;;;3.55;65.54;99488.78;4976279;28;19926;-89
2021/12/20 02:54:47;;;;;;;;;;;;;;;3.53;65.43;99496.31;4976410;28;19934;-89
2021/12/20 03:00:05;;;;;;;;;;;;;;;3.45;64.10;99507.03;4976208;28;20304;-89
2021/12/20 03:02:36;;;;;;;;;;;;;;;3.53;63.62;99513.97;4958877;28;19926;-89
2021/12/20 03:05:10;;;;;;;;;;;;;;;3.54;63.82;99517.34;4975632;28;20418;-90
2021/12/20 03:07:50;;;;;;;;;;;;;;;3.55;62.96;99519.88;4974982;28;19955;-91
2021/12/20 03:10:26;;;;;;;;;;;;;;;3.58;62.57;99531.72;4976737;28;19958;-90
2021/12/20 03:12:58;;;;;;;;;;;;;;;3.62;62.53;99536.91;4975616;28;20031;-89
2021/12/20 03:15:31;;;;;;;;;;;;;;;3.61;62.56;99532.66;4975822;28;19937;-90
2021/12/20 03:18:04;;;;;;;;;;;;;;;3.55;62.27;99546.81;4975135;28;19926;-89
2021/12/20 03:20:38;;;;;;;;;;;;;;;3.55;62.43;99542.59;4958896;28;20384;-90
2021/12/20 03:23:11;;;;;;;;;;;;;;;3.52;61.93;99545.06;4974408;28;19977;-89
2021/12/20 03:25:47;;;;;;;;;;;;;;;3.50;62.89;99545.84;4974392;28;19926;-89
2021/12/20 03:28:19;;;;;;;;;;;;;;;3.50;62.00;99554.28;4975882;28;19926;-89
2021/12/20 03:30:52;;;;;;;;;;;;;;;3.46;62.20;99549.94;4975349;28;19926;-90
2021/12/20 03:33:21;;;;;;;;;;;;;;;3.45;62.29;99555.81;4958275;28;19926;-88
2021/12/20 03:35:57;;;;;;;;;;;;;;;3.41;62.29;99550.66;4976376;28;19926;-89
2021/12/20 03:38:33;;;;;;;;;;;;;;;3.32;62.62;99556.31;4975558;28;19926;-90
2021/12/20 03:41:06;;;;;;;;;;;;;;;3.31;62.61;99565.53;4975300;28;19963;-89
2021/12/20 03:43:36;;;;;;;;;;;;;;;3.26;63.20;99573.81;4978089;28;19933;-87
2021/12/20 03:46:08;;;;;;;;;;;;;;;3.28;62.80;99569.66;4979044;28;19961;-89
2021/12/20 03:48:41;;;;;;;;;;;;;;;3.31;63.16;99569.75;4976411;28;19926;-88
2021/12/20 03:51:13;;;;;;;;;;;;;;;3.36;62.99;99568.16;4941690;28;19930;-87
2021/12/20 03:53:48;;;;;;;;;;;;;;;3.30;62.47;99578.13;4976285;28;19926;-87
2021/12/20 03:56:22;;;;;;;;;;;;;;;3.25;62.76;99584.69;4958799;28;19926;-89
2021/12/20 03:58:54;;;;;;;;;;;;;;;3.32;62.43;99581.53;4976827;28;19973;-90
2021/12/20 04:01:30;;;;;;;;;;;;;;;3.34;62.85;99584.94;4975549;28;19926;-89
2021/12/20 04:04:00;;;;;;;;;;;;;;;3.32;62.91;99589.09;4974822;28;19985;-88
2021/12/20 04:06:34;;;;;;;;;;;;;;;3.36;62.70;99595.91;4942826;28;20013;-89
2021/12/20 04:09:11;;;;;;;;;;;;;;;3.34;62.69;99595.03;4975119;28;19994;-89
2021/12/20 04:11:44;;;;;;;;;;;;;;;3.31;63.14;99600.84;4958450;28;20410;-89
2021/12/20 04:14:14;;;;;;;;;;;;;;;3.31;63.24;99602.53;4975115;28;19930;-88
2021/12/20 04:16:46;;;;;;;;;;;;;;;3.30;63.39;99599.16;4974954;28;19926;-89
2021/12/20 04:19:19;;;;;;;;;;;;;;;3.32;63.68;99609.28;4975073;28;19926;-89
2021/12/20 04:21:51;;;;;;;;;;;;;;;3.38;63.52;99617.00;4958013;28;19930;-89
2021/12/20 04:24:25;;;;;;;;;;;;;;;3.36;63.52;99608.53;4975416;28;19926;-89
2021/12/20 04:27:00;;;;;;;;;;;;;;;3.39;63.46;99616.19;4958515;28;19985;-89
2021/12/20 04:29:35;;;;;;;;;;;;;;;3.41;63.46;99616.25;4975492;28;19930;-89
2021/12/20 04:32:08;;;;;;;;;;;;;;;3.35;63.34;99616.94;4957848;28;19932;-90
2021/12/20 04:34:40;;;;;;;;;;;;;;;3.30;62.94;99628.56;4975785;28;20303;-89
2021/12/20 04:37:12;;;;;;;;;;;;;;;3.33;63.63;99626.13;4976956;28;19930;-89
2021/12/20 04:39:48;;;;;;;;;;;;;;;3.33;63.03;99634.56;4979625;28;19976;-89
2021/12/20 04:42:20;;;;;;;;;;;;;;;3.31;62.81;99635.31;4963272;28;20265;-89
2021/12/20 04:44:53;;;;;;;;;;;;;;;3.34;63.65;99630.34;4978947;28;19930;-87
2021/12/20 04:47:28;;;;;;;;;;;;;;;3.34;63.21;99632.84;4961528;28;19933;-90
2021/12/20 04:49:57;;;;;;;;;;;;;;;3.40;63.89;99635.56;4945214;28;19969;-88
2021/12/20 04:52:29;;;;;;;;;;;;;;;3.53;63.85;99641.78;4960714;28;19926;-89
2021/12/20 04:55:06;;;;;;;;;;;;;;;3.53;63.63;99637.56;4978022;28;19938;-87
2021/12/20 04:57:41;;;;;;;;;;;;;;;3.53;63.47;99645.16;4961288;28;19933;-88
2021/12/20 05:00:22;;;;;;;;;;;;;;;3.53;63.13;99647.66;4977957;28;19926;-88
2021/12/20 05:02:56;;;;;;;;;;;;;;;3.53;63.53;99652.72;4977717;28;19988;-89
2021/12/20 05:05:29;;;;;;;;;;;;;;;3.58;63.24;99656.22;4977641;28;20020;-88
2021/12/20 05:08:04;;;;;;;;;;;;;;;3.60;62.95;99652.06;4961465;28;19926;-89
2021/12/20 05:10:39;;;;;;;;;;;;;;;3.57;63.75;99657.03;4978353;28;20380;-86
2021/12/20 05:13:14;;;;;;;;;;;;;;;3.43;63.38;99660.88;4960700;28;19936;-89
2021/12/20 05:15:46;;;;;;;;;;;;;;;3.34;64.35;99655.56;4977616;28;20299;-87
2021/12/20 05:18:18;;;;;;;;;;;;;;;3.33;63.93;99659.78;4944872;28;19933;-88
2021/12/20 05:20:52;;;;;;;;;;;;;;;3.30;64.32;99659.69;4978232;28;19927;-88
2021/12/20 05:23:25;;;;;;;;;;;;;;;3.32;63.63;99669.78;4960425;28;19952;-88
2021/12/20 05:25:57;;;;;;;;;;;;;;;3.35;63.90;99673.28;4977231;28;19941;-88
2021/12/20 05:28:29;;;;;;;;;;;;;;;3.36;63.63;99667.41;4976193;28;19933;-89
2021/12/20 05:31:01;;;;;;;;;;;;;;;3.38;63.19;99667.47;4960775;28;20459;-89
2021/12/20 05:33:34;;;;;;;;;;;;;;;3.31;63.14;99670.63;4960030;28;19934;-89
2021/12/20 05:36:08;;;;;;;;;;;;;;;3.29;62.74;99668.03;4977327;28;20400;-88
2021/12/20 05:38:52;;;;;;;;;;;;;;;3.25;62.53;99675.47;4960023;28;20295;-88
2021/12/20 05:41:24;;;;;;;;;;;;;;;3.17;62.47;99676.91;4977366;28;20017;-87
2021/12/20 05:43:57;;;;;;;;;;;;;;;3.13;62.32;99680.19;4959833;28;20299;-88
2021/12/20 05:46:26;;;;;;;;;;;;;;;3.02;62.45;99673.97;4975818;28;20341;-88
2021/12/20 05:48:59;;;;;;;;;;;;;;;2.85;63.40;99672.63;4976530;28;19933;-88
2021/12/20 05:51:30;;;;;;;;;;;;;;;2.79;63.18;99675.81;4976948;28;19926;-88
2021/12/20 05:53:59;;;;;;;;;;;;;;;2.60;63.25;99673.56;4959654;28;19926;-88
2021/12/20 05:56:34;;;;;;;;;;;;;;;2.54;64.06;99686.81;4976380;28;19926;-89
2021/12/20 05:59:06;;;;;;;;;;;;;;;2.46;64.28;99680.69;4976975;28;19926;-89
2021/12/20 06:01:41;;;;;;;;;;;;;;;2.44;64.65;99692.38;4976861;28;20025;-89
2021/12/20 06:04:13;;;;;;;;;;;;;;;2.36;65.09;99701.34;4959360;28;19938;-87
2021/12/20 06:06:47;;;;;;;;;;;;;;;2.31;65.59;99704.53;4976810;28;19926;-90
2021/12/20 06:12:09;;;;;;;;;;;;;;;2.34;65.20;99697.94;4976402;28;19968;-90
2021/12/20 06:14:41;;;;;;;;;;;;;;;2.43;65.46;99703.25;4977634;28;20424;-90
2021/12/20 06:17:13;;;;;;;;;;;;;;;2.43;65.15;99698.22;4976856;28;20046;-89
2021/12/20 06:19:43;;;;;;;;;;;;;;;2.43;65.27;99683.09;4976895;28;20013;-89
2021/12/20 06:22:14;;;;;;;;;;;;;;;2.39;65.03;99686.34;4977449;28;20284;-89
2021/12/20 06:24:47;;;;;;;;;;;;;;;2.37;65.61;99693.00;4976006;28;20288;-88
2021/12/20 06:27:19;;;;;;;;;;;;;;;2.36;65.87;99686.25;4976840;28;19926;-89
2021/12/20 06:29:48;;;;;;;;;;;;;;;2.29;65.67;99684.34;4975902;28;20287;-89
2021/12/20 06:32:18;;;;;;;;;;;;;;;2.32;65.10;99688.63;4976204;28;19926;-89
2021/12/20 06:34:54;;;;;;;;;;;;;;;2.28;65.26;99691.84;4976330;28;20013;-89
2021/12/20 06:37:23;;;;;;;;;;;;;;;2.33;64.68;99691.19;4959074;28;19926;-89
2021/12/20 06:39:56;;;;;;;;;;;;;;;2.40;64.49;99703.16;4976491;28;19926;-89
2021/12/20 06:42:30;;;;;;;;;;;;;;;2.42;64.92;99706.59;4959006;28;19926;-90
2021/12/20 06:45:00;;;;;;;;;;;;;;;2.42;65.03;99706.59;4976406;28;19926;-89
2021/12/20 06:50:21;;;;;;;;;;;;;;;2.39;64.65;99711.53;4975124;28;20026;-88
2021/12/20 06:52:53;;;;;;;;;;;;;;;2.34;63.79;99718.06;4975718;28;19953;-89
2021/12/20 06:55:28;;;;;;;;;;;;;;;2.33;64.28;99721.38;4958782;28;19930;-90
2021/12/20 06:58:08;;;;;;;;;;;;;;;2.44;63.69;99732.69;4975775;28;19927;-87
2021/12/20 07:00:43;;;;;;;;;;;;;;;2.53;63.32;99740.53;4975116;28;19933;-89
2021/12/20 07:03:13;;;;;;;;;;;;;;;2.58;63.05;99733.09;4974442;28;19937;-88
2021/12/20 07:05:42;;;;;;;;;;;;;;;2.59;63.62;99730.63;4975529;28;19936;-88
2021/12/20 07:08:13;;;;;;;;;;;;;;;2.69;62.73;99731.78;4959218;28;19958;-87
2021/12/20 07:10:44;;;;;;;;;;;;;;;2.90;62.51;99729.06;4975745;28;19937;-89
2021/12/20 07:13:19;;;;;;;;;;;;;;;3.26;62.69;99722.59;4975651;28;19926;-89
2021/12/20 07:15:49;;;;;;;;;;;;;;;3.56;62.56;99727.63;4975311;28;19928;-87
2021/12/20 07:18:22;;;;;;;;;;;;;;;3.80;61.92;99716.53;4975289;28;20403;-87
2021/12/20 07:20:54;;;;;;;;;;;;;;;3.92;61.33;99716.84;4975416;28;19930;-87
2021/12/20 07:23:27;;;;;;;;;;;;;;;3.93;60.85;99723.63;4975165;28;19934;-88
2021/12/20 07:26:00;;;;;;;;;;;;;;;3.91;60.74;99735.34;4975747;28;19933;-87
2021/12/20 07:28:31;;;;;;;;;;;;;;;3.80;59.92;99734.22;4974396;28;19926;-89
2021/12/20 07:31:04;;;;;;;;;;;;;;;3.66;59.98;99730.47;4975888;28;19994;-86
2021/12/20 07:33:33;;;;;;;;;;;;;;;3.50;60.40;99728.34;4957869;28;19930;-87
2021/12/20 07:36:03;;;;;;;;;;;;;;;3.38;59.84;99730.50;4957746;28;19926;-89
2021/12/20 07:38:38;;;;;;;;;;;;;;;3.38;60.10;99733.03;4958174;28;19926;-89
2021/12/20 07:41:07;;;;;;;;;;;;;;;3.32;59.93;99725.28;4975467;28;20291;-89
2021/12/20 07:43:39;;;;;;;;;;;;;;;3.30;60.33;99729.44;4958276;28;19934;-88
2021/12/20 07:46:08;;;;;;;;;;;;;;;3.30;61.04;99735.34;4975121;28;19977;-88
2021/12/20 07:48:37;;;;;;;;;;;;;;;3.30;61.13;99729.44;4975425;28;19973;-88
2021/12/20 07:51:06;;;;;;;;;;;;;;;3.38;61.42;99730.50;4968998;28;19927;-89
2021/12/20 07:53:36;;;;;;;;;;;;;;;3.52;61.62;99734.28;4936113;28;20356;-92
2021/12/20 07:56:08;;;;;;;;;;;;;;;3.52;61.41;99733.41;4958264;28;19992;-91
2021/12/20 07:58:42;;;;;;;;;;;;;;;3.52;61.45;99726.72;4958422;28;19933;-86
2021/12/20 08:01:16;;;;;;;;;;;;;;;3.55;61.73;99734.34;4976131;28;19933;-92
2021/12/20 08:03:50;;;;;;;;;;;;;;;3.54;61.64;99730.13;4976133;28;19972;-92
2021/12/20 08:06:19;;;;;;;;;;;;;;;3.56;61.60;99740.25;4975163;28;19934;-91
2021/12/20 08:19:18;;;;;;;;;;;;;;;3.98;61.22;99759.94;4901589;29;19935;-90
2021/12/20 08:22:01;;;;;;;;;;;;;;;4.20;60.92;99760.50;4886868;29;19933;-90
2021/12/20 08:24:38;;;;;;;;;;;;;;;4.11;61.41;99760.25;4902539;29;20356;-90
2021/12/20 08:27:07;;;;;;;;;;;;;;;4.03;60.58;99775.22;4902316;29;19927;-90
2021/12/20 08:29:36;;;;;;;;;;;;;;;3.96;60.96;99779.22;4902269;29;19936;-90
2021/12/20 08:32:06;;;;;;;;;;;;;;;4.01;61.10;99789.44;4901988;29;19928;-90
2021/12/20 08:34:37;;;;;;;;;;;;;;;4.10;60.27;99788.84;4902084;29;20393;-90
2021/12/20 08:37:13;;;;;;;;;;;;;;;4.13;60.86;99784.72;4902077;29;20036;-90
2021/12/20 08:39:44;;;;;;;;;;;;;;;4.20;60.70;99791.66;4885551;29;19934;-90
2021/12/20 08:42:13;;;;;;;;;;;;;;;4.23;60.64;99790.88;4901189;29;19966;-91
2021/12/20 08:44:46;;;;;;;;;;;;;;;4.16;60.63;99794.06;4901667;29;19927;-91
2021/12/20 08:47:40;;;;;;;;;;;;;;;4.22;60.67;99795.09;4901543;29;20408;-90
2021/12/20 08:50:15;;;;;;;;;;;;;;;4.33;60.70;99797.88;4900757;29;19937;-91
2021/12/20 08:52:45;;;;;;;;;;;;;;;4.40;60.94;99794.69;4902229;29;20010;-90
2021/12/20 08:55:16;;;;;;;;;;;;;;;4.42;61.13;99795.59;4885528;29;19928;-88
2021/12/20 08:57:46;;;;;;;;;;;;;;;4.44;59.94;99806.59;4900598;29;19927;-93
2021/12/20 09:00:23;;;;;;;;;;;;;;;4.32;60.63;99801.25;4901622;29;20378;-90
2021/12/20 09:02:52;;;;;;;;;;;;;;;4.43;61.13;99804.88;5152101;23;20469;-86
2021/12/20 09:05:31;;;;;;;;;;;;;;;4.55;61.11;99800.13;4978537;28;19991;-86
2021/12/20 09:14:33;;;;;;;;;;;;;;;4.89;61.09;99811.94;5764327;23;19926;-89
2021/12/20 09:17:36;;;;;;;;;;;;;;;4.93;60.81;99803.59;4997385;28;19958;-94
2021/12/20 09:20:21;;;;;;;;;;;;;;;4.64;60.61;99807.94;4992017;28;19925;-91
2021/12/20 10:05:00;;;;;;;;;;;;;;;5.13;56.44;99803.25;5689680;23;19934;-92
2021/12/20 10:07:33;;;;;;;;;;;;;;;5.01;56.35;99802.97;5015501;28;20477;-91
2021/12/20 10:10:03;;;;;;;;;;;;;;;5.01;56.37;99802.97;4998448;28;19926;-90
2021/12/20 10:12:32;;;;;;;;;;;;;;;4.99;56.18;99804.56;5015625;28;19987;-90
2021/12/20 10:15:04;;;;;;;;;;;;;;;5.11;56.03;99804.88;4998086;28;20379;-91
2021/12/20 10:18:19;;;;;;;;;;;;;;;5.13;55.66;99795.66;4997879;28;20295;-90
2021/12/20 10:20:57;;;;;;;;;;;;;;;5.11;55.14;99794.75;4982903;28;19929;-91
2021/12/20 10:23:31;;;;;;;;;;;;;;;5.14;54.98;99799.88;4982375;28;19926;-89
2021/12/20 10:26:12;;;;;;;;;;;;;;;5.09;55.24;99806.50;4998127;28;20398;-88
2021/12/20 10:32:30;;;;;;;;;;;;;;;5.00;55.37;99801.25;5417559;23;19926;-94
2021/12/20 10:47:26;;;;;;;;;;;;;;;5.07;56.43;99797.16;5667070;23;19925;-91
2021/12/20 10:49:56;;;;;;;;;;;;;;;5.14;56.55;99797.34;4995411;28;19925;-92
2021/12/20 10:52:29;;;;;;;;;;;;;;;5.05;55.99;99791.22;4995475;28;19926;-93
2021/12/20 10:55:01;;;;;;;;;;;;;;;5.11;56.05;99797.28;4995799;28;20386;-92
2021/12/20 10:57:31;;;;;;;;;;;;;;;5.12;55.99;99796.47;4995024;28;19925;-91
2021/12/20 11:00:11;;;;;;;;;;;;;;;5.17;55.72;99794.03;4992236;28;19932;-89
2021/12/20 11:03:15;;;;;;;;;;;;;;;5.18;55.88;99799.13;4980814;28;20008;-89
2021/12/20 11:06:12;;;;;;;;;;;;;;;5.25;56.10;99797.59;4991812;28;19926;-89
2021/12/20 11:11:33;;;;;;;;;;;;;;;5.25;55.29;99811.13;4983185;28;19926;-92
2021/12/20 11:14:10;;;;;;;;;;;;;;;5.09;55.31;99811.56;4995733;28;19929;-91
2021/12/20 11:16:41;;;;;;;;;;;;;;;5.02;55.25;99808.84;4988639;28;20402;-86
2021/12/20 11:19:21;;;;;;;;;;;;;;;5.07;55.50;99798.03;4979693;28;20350;-90
2021/12/20 11:26:31;;;;;;;;;;;;;;;5.06;55.22;99810.66;4974860;28;20005;-94
2021/12/20 11:29:49;;;;;;;;;;;;;;;4.92;55.07;99807.78;4954678;23;19925;-94
2021/12/20 11:32:45;;;;;;;;;;;;;;;4.97;55.03;99805.34;5018345;28;20379;-92
2021/12/20 11:35:18;;;;;;;;;;;;;;;4.95;55.31;99800.28;4978855;28;19927;-93
2021/12/20 11:37:56;;;;;;;;;;;;;;;4.92;55.00;99805.25;4981316;28;19931;-93
2021/12/20 11:40:45;;;;;;;;;;;;;;;4.91;55.25;99801.03;4939982;29;19926;-93
2021/12/20 11:44:00;;;;;;;;;;;;;;;4.92;54.94;99802.72;4917940;29;19970;-92
2021/12/20 11:46:43;;;;;;;;;;;;;;;4.95;55.27;99795.22;4904843;29;19928;-91
2021/12/20 11:49:26;;;;;;;;;;;;;;;4.98;55.13;99807.94;4907955;29;19931;-94
2021/12/20 11:51:56;;;;;;;;;;;;;;;5.01;55.12;99797.91;4923296;29;20009;-95
2021/12/20 12:15:08;;;;;;;;;;;;;;;4.86;56.13;99807.66;4999138;23;20790;-94
2021/12/20 12:18:13;;;;;;;;;;;;;;;4.95;56.81;99810.41;4991436;23;20292;-89
2021/12/20 12:21:09;;;;;;;;;;;;;;;5.02;56.96;99818.97;5212851;23;19926;-93
2021/12/20 12:24:45;;;;;;;;;;;;;;;4.95;57.62;99815.44;5009650;23;19933;-96
2021/12/20 12:27:23;;;;;;;;;;;;;;;4.92;58.02;99822.97;4981354;28;19925;-94
2021/12/20 12:33:48;;;;;;;;;;;;;;;4.88;57.99;99828.78;4950999;29;19933;-95
2021/12/20 12:36:45;;;;;;;;;;;;;;;4.96;58.22;99828.97;4940995;29;19926;-92
2021/12/20 12:39:23;;;;;;;;;;;;;;;4.90;57.83;99827.13;4971591;28;19988;-93
2021/12/20 12:45:50;;;;;;;;;;;;;;;4.98;58.30;99828.19;4901130;29;19983;-93
2021/12/20 12:48:30;;;;;;;;;;;;;;;4.94;58.80;99830.59;4901289;29;20023;-94
2021/12/20 12:51:40;;;;;;;;;;;;;;;4.95;58.64;99837.34;4902621;29;19927;-94
2021/12/20 12:54:36;;;;;;;;;;;;;;;4.95;58.74;99830.63;4903681;29;19987;-94
2021/12/20 12:57:17;;;;;;;;;;;;;;;4.91;58.75;99836.44;4916840;29;19927;-93
2021/12/20 13:00:00;;;;;;;;;;;;;;;4.88;59.02;99823.72;4902184;29;20366;-93
2021/12/20 13:02:36;;;;;;;;;;;;;;;4.87;59.12;99829.56;4902517;29;19927;-95
2021/12/20 13:05:14;;;;;;;;;;;;;;;4.83;59.35;99825.28;4918958;29;19928;-91
2021/12/20 13:07:52;;;;;;;;;;;;;;;4.84;59.13;99831.19;4901684;29;19927;-92
2021/12/20 13:14:47;;;;;;;;;;;;;;;4.81;59.46;99839.56;4882798;29;19927;-95
2021/12/20 13:18:14;;;;;;;;;;;;;;;4.78;59.29;99839.47;4882473;29;19935;-94
2021/12/20 13:48:00;;;;;;;;;;;;;;;4.55;59.88;99856.59;5676499;23;19948;-93
2021/12/20 14:06:53;;;;;;;;;;;;;;;4.31;60.43;99870.25;6056105;23;19917;-92
2021/12/20 14:14:11;;;;;;;;;;;;;;;4.20;59.87;99867.41;4898421;29;19928;-92
2021/12/20 14:17:47;;;;;;;;;;;;;;;4.20;60.61;99875.00;4900793;29;19976;-91
2021/12/20 14:20:20;;;;;;;;;;;;;;;4.27;60.10;99873.53;4899742;29;20013;-91
2021/12/20 14:23:15;;;;;;;;;;;;;;;4.23;60.37;99871.69;4884264;29;19927;-92
2021/12/20 14:26:15;;;;;;;;;;;;;;;4.13;60.83;99868.06;4884277;29;19928;-91
2021/12/20 14:28:50;;;;;;;;;;;;;;;4.08;60.36;99878.03;4899261;29;19959;-91
2021/12/20 14:31:35;;;;;;;;;;;;;;;4.08;60.92;99873.00;4883970;29;20013;-91
2021/12/20 14:34:10;;;;;;;;;;;;;;;4.11;60.61;99877.28;4898696;29;20022;-91
2021/12/20 14:36:42;;;;;;;;;;;;;;;4.06;60.68;99872.09;4898122;29;19927;-92
2021/12/20 14:39:15;;;;;;;;;;;;;;;4.07;61.17;99871.28;4942199;23;20021;-91
2021/12/20 14:41:51;;;;;;;;;;;;;;;4.14;61.15;99881.56;4995142;28;19963;-91
2021/12/20 14:44:28;;;;;;;;;;;;;;;4.19;60.53;99880.00;4995889;28;19979;-91
2021/12/20 14:47:10;;;;;;;;;;;;;;;4.17;60.86;99877.47;4978977;28;19932;-92
2021/12/20 14:49:44;;;;;;;;;;;;;;;4.08;60.99;99872.13;4995690;28;20384;-92
2021/12/20 14:52:18;;;;;;;;;;;;;;;4.10;61.30;99874.72;4995929;28;20277;-90
2021/12/20 14:54:52;;;;;;;;;;;;;;;4.00;60.88;99874.47;4978417;28;19926;-92
2021/12/20 14:57:28;;;;;;;;;;;;;;;4.07;61.07;99866.25;4978620;28;19933;-90
2021/12/20 15:00:01;;;;;;;;;;;;;;;4.08;60.79;99867.06;4978380;28;19926;-91
2021/12/20 15:02:39;;;;;;;;;;;;;;;4.15;61.31;99878.22;4995426;28;19926;-90
2021/12/20 15:05:18;;;;;;;;;;;;;;;4.08;61.51;99872.13;4995388;28;19930;-91
2021/12/20 15:07:51;;;;;;;;;;;;;;;4.03;61.29;99869.47;4995463;28;19926;-92
2021/12/20 15:10:26;;;;;;;;;;;;;;;4.05;60.84;99877.94;4995305;28;19933;-89
2021/12/20 15:12:58;;;;;;;;;;;;;;;4.03;60.87;99884.63;4978303;28;19925;-88
2021/12/20 15:15:28;;;;;;;;;;;;;;;3.96;61.30;99882.75;4994950;28;19953;-91
2021/12/20 15:18:04;;;;;;;;;;;;;;;3.95;61.36;99881.06;4995055;28;19933;-89
2021/12/20 15:20:37;;;;;;;;;;;;;;;3.93;61.23;99885.22;4977763;28;20406;-89
2021/12/20 15:23:10;;;;;;;;;;;;;;;3.81;61.80;99882.31;4978202;28;19926;-90
2021/12/20 15:25:40;;;;;;;;;;;;;;;3.79;62.31;99876.34;4995109;28;19926;-91
2021/12/20 15:28:13;;;;;;;;;;;;;;;3.83;62.11;99862.16;4995340;28;20375;-90
2021/12/20 15:30:42;;;;;;;;;;;;;;;3.81;62.24;99862.13;4978085;28;20383;-89
2021/12/20 15:33:15;;;;;;;;;;;;;;;3.70;61.74;99863.47;4996316;28;19926;-88
2021/12/20 15:35:45;;;;;;;;;;;;;;;3.60;62.35;99876.63;4995382;28;19926;-90
2021/12/20 15:38:43;;;;;;;;;;;;;;;3.58;62.65;99872.34;4978376;28;19949;-91
2021/12/20 15:41:16;;;;;;;;;;;;;;;3.57;62.81;99884.13;4955499;29;19931;-89
2021/12/20 15:43:48;;;;;;;;;;;;;;;3.54;62.84;99886.53;4939567;29;20292;-90
2021/12/20 15:46:19;;;;;;;;;;;;;;;3.49;62.96;99893.13;4958073;28;19927;-91
2021/12/20 15:48:54;;;;;;;;;;;;;;;3.43;62.83;99882.00;4957139;28;19962;-91
2021/12/20 15:51:29;;;;;;;;;;;;;;;3.37;63.02;99893.59;4956652;28;19950;-91
2021/12/20 15:54:04;;;;;;;;;;;;;;;3.35;62.97;99897.75;4955226;29;19930;-90
2021/12/20 15:56:38;;;;;;;;;;;;;;;3.39;63.18;99897.03;4956638;29;19926;-90
2021/12/20 15:59:32;;;;;;;;;;;;;;;3.34;63.45;99912.81;4976990;28;19930;-91
2021/12/20 16:02:05;;;;;;;;;;;;;;;3.39;63.37;99911.28;4940000;29;19926;-89
2021/12/20 16:04:39;;;;;;;;;;;;;;;3.39;63.67;99919.72;4955433;29;19930;-90
2021/12/20 16:07:09;;;;;;;;;;;;;;;3.43;63.95;99933.31;4955422;29;19926;-91
2021/12/20 16:09:41;;;;;;;;;;;;;;;3.42;63.88;99923.13;4956597;28;20373;-91
2021/12/20 16:12:14;;;;;;;;;;;;;;;3.36;63.71;99936.41;4957278;29;19930;-92
2021/12/20 16:14:46;;;;;;;;;;;;;;;3.29;64.56;99939.53;4955321;29;19927;-92
2021/12/20 16:17:20;;;;;;;;;;;;;;;3.23;65.05;99946.94;4956804;29;20039;-90
2021/12/20 16:19:54;;;;;;;;;;;;;;;3.14;65.58;99950.00;4955349;29;19961;-91
2021/12/20 16:22:26;;;;;;;;;;;;;;;3.21;66.32;99951.06;4956524;28;19934;-90
2021/12/20 16:24:57;;;;;;;;;;;;;;;3.22;67.05;99953.63;4954865;29;20017;-91
2021/12/20 16:27:32;;;;;;;;;;;;;;;3.28;67.53;99952.97;4954765;29;19934;-90
2021/12/20 16:30:06;;;;;;;;;;;;;;;3.32;67.14;99947.22;4938960;29;19926;-91
2021/12/20 16:32:38;;;;;;;;;;;;;;;3.33;67.33;99947.28;4956157;28;19927;-90
2021/12/20 16:35:16;;;;;;;;;;;;;;;3.28;67.76;99947.94;4958640;29;19927;-90
2021/12/20 16:38:17;;;;;;;;;;;;;;;3.30;67.36;99947.19;4958360;29;20284;-89
2021/12/20 16:40:49;;;;;;;;;;;;;;;3.25;67.69;99950.34;4977367;28;20436;-90
2021/12/20 16:43:21;;;;;;;;;;;;;;;3.33;67.15;99956.50;4978563;28;19941;-89
2021/12/20 16:45:56;;;;;;;;;;;;;;;3.37;66.67;99948.22;4978594;28;20376;-90
2021/12/20 16:48:50;;;;;;;;;;;;;;;3.28;67.25;99946.28;4965039;28;20288;-92
2021/12/20 16:51:26;;;;;;;;;;;;;;;3.32;67.24;99950.59;4978225;28;19926;-87
2021/12/20 16:54:25;;;;;;;;;;;;;;;3.29;66.74;99944.59;4979252;28;19930;-91